createdAt,value
2018-02-27T00:00:48.911Z,-8.81
2018-02-27T00:03:16.407Z,-8.91
2018-02-27T00:05:43.887Z,-8.97
2018-02-27T00:08:11.360Z,-9.00
2018-02-27T00:10:38.889Z,-8.97
2018-02-27T00:13:06.391Z,-8.96
2018-02-27T00:15:33.873Z,-9.02
2018-02-27T00:18:01.360Z,-9.04
2018-02-27T00:20:28.895Z,-9.06
2018-02-27T00:22:56.500Z,-9.04
2018-02-27T00:25:23.971Z,-9.09
2018-02-27T00:27:51.470Z,-9.14
2018-02-27T00:30:19.000Z,-9.06
2018-02-27T00:35:18.347Z,-8.98
2018-02-27T00:37:45.807Z,-9.06
2018-02-27T00:40:13.615Z,-9.16
2018-02-27T00:42:41.147Z,-9.07
2018-02-27T00:45:08.611Z,-9.08
2018-02-27T00:47:36.079Z,-9.13
2018-02-27T00:50:03.547Z,-9.07
2018-02-27T00:52:31.260Z,-9.04
2018-02-27T00:54:58.831Z,-9.04
2018-02-27T00:57:26.343Z,-9.04
2018-02-27T00:59:53.809Z,-9.14
2018-02-27T01:02:21.285Z,-9.17
2018-02-27T01:04:48.764Z,-9.16
2018-02-27T01:07:16.244Z,-9.18
2018-02-27T01:09:43.731Z,-9.20
2018-02-27T01:12:11.243Z,-9.21
2018-02-27T01:14:38.758Z,-9.14
2018-02-27T01:17:06.335Z,-9.16
2018-02-27T01:19:33.819Z,-9.14
2018-02-27T01:22:01.276Z,-9.21
2018-02-27T01:24:28.727Z,-9.28
2018-02-27T01:26:56.195Z,-9.27
2018-02-27T01:29:24.360Z,-9.32
2018-02-27T01:31:51.906Z,-9.18
2018-02-27T01:34:19.396Z,-9.25
2018-02-27T01:36:47.054Z,-9.24
2018-02-27T01:39:14.746Z,-9.28
2018-02-27T01:41:42.272Z,-9.23
2018-02-27T01:44:09.751Z,-9.23
2018-02-27T01:46:37.215Z,-9.19
2018-02-27T01:49:04.700Z,-9.29
2018-02-27T01:51:32.232Z,-9.30
2018-02-27T01:53:59.687Z,-9.30
2018-02-27T01:56:27.655Z,-9.25
2018-02-27T01:58:55.115Z,-9.30
2018-02-27T02:01:22.658Z,-9.27
2018-02-27T02:03:50.152Z,-9.23
2018-02-27T02:06:17.693Z,-9.25
2018-02-27T02:08:45.144Z,-9.29
2018-02-27T02:11:12.627Z,-9.27
2018-02-27T02:13:40.092Z,-9.21
2018-02-27T02:16:07.647Z,-9.22
2018-02-27T02:18:35.163Z,-9.23
2018-02-27T02:21:02.638Z,-9.12
2018-02-27T02:23:30.116Z,-9.20
2018-02-27T02:25:57.583Z,-9.19
2018-02-27T02:28:25.046Z,-9.21
2018-02-27T02:30:52.529Z,-9.31
2018-02-27T02:33:20.021Z,-9.30
2018-02-27T02:35:47.477Z,-9.28
2018-02-27T02:38:15.079Z,-9.33
2018-02-27T02:40:42.538Z,-9.31
2018-02-27T02:43:10.016Z,-9.22
2018-02-27T02:45:37.495Z,-9.16
2018-02-27T02:48:04.967Z,-9.22
2018-02-27T02:50:32.660Z,-9.29
2018-02-27T02:53:00.111Z,-9.24
2018-02-27T02:55:27.595Z,-9.33
2018-02-27T02:57:55.074Z,-9.31
2018-02-27T03:00:22.717Z,-9.34
2018-02-27T03:02:50.214Z,-9.28
2018-02-27T03:05:17.698Z,-9.22
2018-02-27T03:07:45.178Z,-9.31
2018-02-27T03:10:12.701Z,-9.32
2018-02-27T03:12:40.352Z,-9.31
2018-02-27T03:15:07.837Z,-9.22
2018-02-27T03:17:35.316Z,-9.26
2018-02-27T03:20:02.852Z,-9.37
2018-02-27T03:22:30.987Z,-9.29
2018-02-27T03:24:58.483Z,-9.29
2018-02-27T03:27:25.953Z,-9.35
2018-02-27T03:29:53.414Z,-9.40
2018-02-27T03:32:20.899Z,-9.43
2018-02-27T03:34:48.369Z,-9.46
2018-02-27T03:37:15.871Z,-9.57
2018-02-27T03:39:43.339Z,-9.47
2018-02-27T03:42:10.815Z,-9.46
2018-02-27T03:44:38.272Z,-9.38
2018-02-27T03:47:05.736Z,-9.41
2018-02-27T03:49:33.219Z,-9.45
2018-02-27T03:52:00.692Z,-9.53
2018-02-27T03:54:28.355Z,-9.46
2018-02-27T03:56:55.833Z,-9.46
2018-02-27T03:59:23.311Z,-9.56
2018-02-27T04:01:50.770Z,-9.62
2018-02-27T04:04:18.235Z,-9.65
2018-02-27T04:06:45.927Z,-9.56
2018-02-27T04:09:13.637Z,-9.51
2018-02-27T04:11:41.202Z,-9.58
2018-02-27T04:14:08.700Z,-9.55
2018-02-27T04:16:36.221Z,-9.52
2018-02-27T04:19:03.726Z,-9.50
2018-02-27T04:21:31.276Z,-9.47
2018-02-27T04:23:58.917Z,-9.48
2018-02-27T04:26:26.383Z,-9.53
2018-02-27T04:28:53.847Z,-9.50
2018-02-27T04:31:21.586Z,-9.54
2018-02-27T04:33:49.037Z,-9.58
2018-02-27T04:36:16.543Z,-9.56
2018-02-27T04:38:44.055Z,-9.60
2018-02-27T04:41:11.512Z,-9.63
2018-02-27T04:43:38.970Z,-9.60
2018-02-27T04:46:06.456Z,-9.57
2018-02-27T04:48:33.966Z,-9.67
2018-02-27T04:51:01.444Z,-9.67
2018-02-27T04:53:29.951Z,-9.73
2018-02-27T04:55:57.440Z,-9.87
2018-02-27T04:58:25.018Z,-9.84
2018-02-27T05:00:52.499Z,-9.76
2018-02-27T05:03:19.960Z,-9.68
2018-02-27T05:05:47.424Z,-9.79
2018-02-27T05:08:15.250Z,-9.86
2018-02-27T05:10:42.755Z,-9.80
2018-02-27T05:13:10.515Z,-9.83
2018-02-27T05:15:38.000Z,-9.87
2018-02-27T05:18:05.459Z,-9.91
2018-02-27T05:20:32.985Z,-9.87
2018-02-27T05:23:00.442Z,-9.85
2018-02-27T05:25:27.961Z,-9.75
2018-02-27T05:27:55.477Z,-9.70
2018-02-27T05:30:23.190Z,-9.69
2018-02-27T05:32:50.724Z,-9.80
2018-02-27T05:35:18.193Z,-9.89
2018-02-27T05:37:45.677Z,-9.95
2018-02-27T05:40:13.383Z,-9.97
2018-02-27T05:42:41.143Z,-9.97
2018-02-27T05:45:08.708Z,-9.95
2018-02-27T05:47:36.167Z,-10.04
2018-02-27T05:50:03.701Z,-9.98
2018-02-27T05:52:31.973Z,-10.01
2018-02-27T05:54:59.450Z,-10.00
2018-02-27T05:57:26.923Z,-9.93
2018-02-27T05:59:54.408Z,-9.95
2018-02-27T06:02:21.887Z,-9.96
2018-02-27T06:04:49.367Z,-9.97
2018-02-27T06:07:16.876Z,-9.94
2018-02-27T06:09:44.330Z,-9.82
2018-02-27T06:12:11.787Z,-9.87
2018-02-27T06:14:39.256Z,-10.00
2018-02-27T06:17:07.724Z,-9.96
2018-02-27T06:19:35.179Z,-10.02
2018-02-27T06:22:05.937Z,-10.07
2018-02-27T06:24:33.984Z,-10.04
2018-02-27T06:27:04.826Z,-9.94
2018-02-27T06:29:32.305Z,-9.88
2018-02-27T06:31:59.800Z,-9.72
2018-02-27T06:34:27.386Z,-9.77
2018-02-27T06:36:54.887Z,-9.79
2018-02-27T06:39:22.351Z,-9.79
2018-02-27T06:41:49.859Z,-9.84
2018-02-27T06:44:17.561Z,-9.73
2018-02-27T06:46:45.067Z,-9.70
2018-02-27T06:49:12.551Z,-9.64
2018-02-27T06:51:40.010Z,-9.88
2018-02-27T06:54:07.503Z,-9.92
2018-02-27T06:56:35.018Z,-9.82
2018-02-27T06:59:02.479Z,-9.82
2018-02-27T07:01:29.942Z,-9.90
2018-02-27T07:03:57.391Z,-9.79
2018-02-27T07:06:25.106Z,-9.73
2018-02-27T07:08:52.616Z,-9.79
2018-02-27T07:11:20.100Z,-9.78
2018-02-27T07:13:47.585Z,-9.73
2018-02-27T07:16:15.185Z,-9.66
2018-02-27T07:18:42.650Z,-9.71
2018-02-27T07:21:10.124Z,-9.62
2018-02-27T07:23:37.582Z,-9.66
2018-02-27T07:26:05.064Z,-9.67
2018-02-27T07:28:32.807Z,-9.79
2018-02-27T07:31:00.264Z,-9.65
2018-02-27T07:33:27.786Z,-9.46
2018-02-27T07:35:55.297Z,-9.34
2018-02-27T07:38:22.828Z,-9.30
2018-02-27T07:40:50.312Z,-9.22
2018-02-27T07:43:17.871Z,-9.30
2018-02-27T07:45:45.326Z,-9.45
2018-02-27T07:48:12.790Z,-9.61
2018-02-27T07:50:40.290Z,-9.44
2018-02-27T07:53:07.760Z,-9.50
2018-02-27T07:55:35.260Z,-9.23
2018-02-27T07:58:02.734Z,-9.36
2018-02-27T08:00:31.291Z,-9.40
2018-02-27T08:03:00.169Z,-9.34
2018-02-27T08:05:30.611Z,-9.46
2018-02-27T08:07:58.106Z,-9.32
2018-02-27T08:10:25.605Z,-9.05
2018-02-27T08:12:53.076Z,-8.98
2018-02-27T08:15:23.055Z,-8.84
2018-02-27T08:17:52.719Z,-8.95
2018-02-27T08:20:21.948Z,-9.00
2018-02-27T08:22:53.334Z,-9.17
2018-02-27T08:25:20.816Z,-9.16
2018-02-27T08:27:51.347Z,-9.17
2018-02-27T08:30:20.448Z,-9.15
2018-02-27T08:32:50.161Z,-9.01
2018-02-27T08:35:17.632Z,-8.86
2018-02-27T08:37:45.128Z,-8.79
2018-02-27T08:40:12.631Z,-8.99
2018-02-27T08:42:40.284Z,-8.96
2018-02-27T08:45:07.749Z,-8.83
2018-02-27T08:47:35.228Z,-8.99
2018-02-27T08:50:02.903Z,-8.96
2018-02-27T08:52:30.597Z,-8.93
2018-02-27T08:54:58.275Z,-8.79
2018-02-27T08:57:25.756Z,-9.00
2018-02-27T08:59:54.469Z,-9.04
2018-02-27T09:02:27.633Z,-9.09
2018-02-27T09:04:55.818Z,-8.97
2018-02-27T09:07:23.324Z,-8.93
2018-02-27T09:09:50.794Z,-8.81
2018-02-27T09:12:18.803Z,-8.72
2018-02-27T09:14:46.258Z,-8.69
2018-02-27T09:17:13.727Z,-8.55
2018-02-27T09:19:41.284Z,-8.47
2018-02-27T09:22:09.940Z,-8.65
2018-02-27T09:24:37.423Z,-8.83
2018-02-27T09:27:05.037Z,-8.97
2018-02-27T09:29:32.500Z,-9.01
2018-02-27T09:32:02.511Z,-9.15
2018-02-27T09:34:30.360Z,-8.97
2018-02-27T09:36:57.843Z,-8.65
2018-02-27T09:39:25.316Z,-8.68
2018-02-27T09:41:52.787Z,-8.51
2018-02-27T09:44:20.265Z,-8.55
2018-02-27T09:46:47.769Z,-8.90
2018-02-27T09:49:15.250Z,-8.84
2018-02-27T09:51:43.012Z,-8.78
2018-02-27T09:54:10.488Z,-8.54
2018-02-27T09:56:37.952Z,-8.40
2018-02-27T09:59:05.432Z,-8.58
2018-02-27T10:01:32.895Z,-8.74
2018-02-27T10:04:00.372Z,-8.32
2018-02-27T10:06:27.968Z,-8.02
2018-02-27T10:08:55.416Z,-8.30
2018-02-27T10:11:22.955Z,-8.63
2018-02-27T10:13:50.411Z,-8.63
2018-02-27T10:16:17.889Z,-8.32
2018-02-27T10:18:45.810Z,-8.37
2018-02-27T10:21:13.468Z,-8.32
2018-02-27T10:23:40.952Z,-8.40
2018-02-27T10:26:08.430Z,-8.26
2018-02-27T10:28:35.927Z,-8.67
2018-02-27T10:31:03.418Z,-8.43
2018-02-27T10:33:30.933Z,-8.53
2018-02-27T10:35:58.472Z,-8.58
2018-02-27T10:38:25.946Z,-8.70
2018-02-27T10:40:53.439Z,-8.60
2018-02-27T10:43:21.344Z,-8.59
2018-02-27T10:45:48.871Z,-8.37
2018-02-27T10:48:16.364Z,-8.27
2018-02-27T10:50:43.863Z,-8.26
2018-02-27T10:53:11.380Z,-8.10
2018-02-27T10:55:38.874Z,-7.82
2018-02-27T10:58:06.347Z,-8.06
2018-02-27T11:00:39.328Z,-7.93
2018-02-27T11:03:06.791Z,-7.90
2018-02-27T11:05:34.268Z,-8.08
2018-02-27T11:08:01.750Z,-8.09
2018-02-27T11:10:29.489Z,-7.94
2018-02-27T11:12:56.978Z,-7.88
2018-02-27T11:15:24.487Z,-7.38
2018-02-27T11:17:51.964Z,-7.51
2018-02-27T11:20:20.160Z,-7.67
2018-02-27T11:22:47.649Z,-7.51
2018-02-27T11:25:15.145Z,-7.64
2018-02-27T11:27:42.595Z,-7.67
2018-02-27T11:30:10.075Z,-7.80
2018-02-27T11:32:37.553Z,-7.09
2018-02-27T11:35:05.058Z,-7.26
2018-02-27T11:37:32.542Z,-7.75
2018-02-27T11:40:00.000Z,-7.65
2018-02-27T11:42:27.604Z,-7.84
2018-02-27T11:44:55.079Z,-7.73
2018-02-27T11:47:22.567Z,-7.87
2018-02-27T11:49:50.040Z,-7.69
2018-02-27T11:52:22.399Z,-7.84
2018-02-27T11:54:54.886Z,-7.66
2018-02-27T11:57:25.376Z,-7.50
2018-02-27T11:59:53.780Z,-7.37
2018-02-27T12:02:26.967Z,-7.23
2018-02-27T12:04:55.030Z,-7.49
2018-02-27T12:07:24.368Z,-7.39
2018-02-27T12:09:51.853Z,-7.25
2018-02-27T12:12:22.001Z,-7.64
2018-02-27T12:14:51.854Z,-7.80
2018-02-27T12:17:23.702Z,-7.97
2018-02-27T12:19:51.927Z,-7.72
2018-02-27T12:22:19.459Z,-7.53
2018-02-27T12:24:50.812Z,-7.45
2018-02-27T12:27:18.296Z,-7.54
2018-02-27T12:29:45.845Z,-7.63
2018-02-27T12:32:13.330Z,-7.42
2018-02-27T12:34:40.813Z,-7.61
2018-02-27T12:37:09.316Z,-7.67
2018-02-27T12:39:36.808Z,-7.58
2018-02-27T12:42:04.445Z,-7.45
2018-02-27T12:44:31.947Z,-7.49
2018-02-27T12:46:59.427Z,-7.66
2018-02-27T12:49:26.904Z,-7.42
2018-02-27T12:51:54.376Z,-7.30
2018-02-27T12:54:21.854Z,-7.27
2018-02-27T12:56:49.314Z,-7.22
2018-02-27T12:59:16.775Z,-7.20
2018-02-27T13:01:44.314Z,-7.20
2018-02-27T13:04:11.793Z,-7.27
2018-02-27T13:06:39.254Z,-7.13
2018-02-27T13:09:06.759Z,-7.16
2018-02-27T13:11:38.142Z,-6.95
2018-02-27T13:14:07.923Z,-7.10
2018-02-27T13:16:38.059Z,-7.42
2018-02-27T13:19:06.185Z,-7.39
2018-02-27T13:21:34.486Z,-7.21
2018-02-27T13:24:02.582Z,-7.08
2018-02-27T13:26:32.092Z,-7.25
2018-02-27T13:29:03.740Z,-7.22
2018-02-27T13:31:31.224Z,-6.98
2018-02-27T13:33:58.683Z,-6.96
2018-02-27T13:36:28.235Z,-7.41
2018-02-27T13:38:55.747Z,-7.38
2018-02-27T13:41:26.204Z,-7.45
2018-02-27T13:43:53.718Z,-7.37
2018-02-27T13:46:21.171Z,-7.31
2018-02-27T13:48:48.645Z,-7.34
2018-02-27T13:51:16.211Z,-7.31
2018-02-27T13:53:43.665Z,-7.20
2018-02-27T13:56:11.143Z,-7.12
2018-02-27T13:58:38.627Z,-6.86
2018-02-27T14:01:06.147Z,-7.19
2018-02-27T14:03:33.671Z,-7.41
2018-02-27T14:06:01.121Z,-7.32
2018-02-27T14:08:28.602Z,-6.85
2018-02-27T14:10:56.076Z,-6.82
2018-02-27T14:13:23.548Z,-6.86
2018-02-27T14:15:51.034Z,-7.04
2018-02-27T14:18:18.507Z,-6.83
2018-02-27T14:20:45.989Z,-7.08
2018-02-27T14:23:13.461Z,-6.79
2018-02-27T14:25:40.976Z,-6.71
2018-02-27T14:28:08.483Z,-7.00
2018-02-27T14:30:36.006Z,-7.04
2018-02-27T14:33:03.518Z,-7.13
2018-02-27T14:35:31.033Z,-7.22
2018-02-27T14:37:58.533Z,-7.12
2018-02-27T14:40:26.068Z,-7.02
2018-02-27T14:42:53.567Z,-6.82
2018-02-27T14:45:21.074Z,-6.68
2018-02-27T14:47:48.563Z,-6.67
2018-02-27T14:50:16.145Z,-6.80
2018-02-27T14:52:43.657Z,-7.01
2018-02-27T14:55:11.131Z,-7.02
2018-02-27T14:57:38.625Z,-7.15
2018-02-27T15:00:06.186Z,-7.18
2018-02-27T15:02:33.844Z,-7.20
2018-02-27T15:05:01.351Z,-7.30
2018-02-27T15:07:28.814Z,-7.22
2018-02-27T15:09:56.263Z,-7.20
2018-02-27T15:12:24.107Z,-7.13
2018-02-27T15:14:51.577Z,-7.05
2018-02-27T15:17:19.027Z,-6.94
2018-02-27T15:19:46.548Z,-6.75
2018-02-27T15:22:14.361Z,-6.93
2018-02-27T15:24:41.932Z,-6.74
2018-02-27T15:27:09.433Z,-6.90
2018-02-27T15:29:36.905Z,-6.84
2018-02-27T15:32:04.421Z,-6.95
2018-02-27T15:34:31.949Z,-7.09
2018-02-27T15:36:59.429Z,-7.14
2018-02-27T15:39:27.843Z,-7.24
2018-02-27T15:41:55.361Z,-7.22
2018-02-27T15:44:22.893Z,-7.19
2018-02-27T15:46:50.366Z,-7.16
2018-02-27T15:49:17.880Z,-7.40
2018-02-27T15:51:45.341Z,-7.47
2018-02-27T15:54:12.804Z,-7.48
2018-02-27T15:56:40.281Z,-7.55
2018-02-27T15:59:07.752Z,-7.58
2018-02-27T16:01:35.285Z,-7.65
2018-02-27T16:04:02.864Z,-7.70
2018-02-27T16:06:30.379Z,-7.67
2018-02-27T16:08:57.937Z,-7.73
2018-02-27T16:11:34.951Z,-7.74
2018-02-27T16:14:03.907Z,-7.67
2018-02-27T16:16:35.059Z,-7.71
2018-02-27T16:19:16.017Z,-7.74
2018-02-27T16:21:43.597Z,-7.92
2018-02-27T16:24:11.075Z,-8.09
2018-02-27T16:26:38.564Z,-8.07
2018-02-27T16:29:06.038Z,-8.09
2018-02-27T16:31:33.608Z,-8.21
2018-02-27T16:34:01.141Z,-8.22
2018-02-27T16:36:28.877Z,-8.20
2018-02-27T16:41:30.218Z,-8.38
2018-02-27T16:43:57.837Z,-8.39
2018-02-27T16:46:25.340Z,-8.46
2018-02-27T16:48:52.845Z,-8.47
2018-02-27T16:51:20.565Z,-8.49
2018-02-27T16:53:48.075Z,-8.55
2018-02-27T16:56:16.618Z,-8.55
2018-02-27T16:58:44.133Z,-8.52
2018-02-27T17:01:11.690Z,-8.56
2018-02-27T17:03:39.162Z,-8.56
2018-02-27T17:06:07.236Z,-8.55
2018-02-27T17:08:34.810Z,-8.51
2018-02-27T17:12:55.566Z,-8.59
2018-02-27T17:15:24.430Z,-8.70
2018-02-27T17:17:52.499Z,-8.78
2018-02-27T17:20:21.114Z,-8.76
2018-02-27T17:22:48.652Z,-8.73
2018-02-27T17:25:18.153Z,-8.74
2018-02-27T17:27:47.975Z,-8.68
2018-02-27T17:30:15.545Z,-8.76
2018-02-27T17:32:43.094Z,-8.69
2018-02-27T17:35:10.973Z,-8.65
2018-02-27T17:37:41.372Z,-8.69
2018-02-27T17:40:10.580Z,-8.70
2018-02-27T17:42:38.855Z,-8.66
2018-02-27T17:45:06.378Z,-8.63
2018-02-27T17:47:33.961Z,-8.66
2018-02-27T17:50:01.868Z,-8.69
2018-02-27T17:52:29.390Z,-8.70
2018-02-27T17:54:56.903Z,-8.85
2018-02-27T17:57:24.414Z,-8.78
2018-02-27T17:59:51.973Z,-8.82
2018-02-27T18:02:19.864Z,-8.89
2018-02-27T18:04:47.460Z,-8.97
2018-02-27T18:07:15.012Z,-8.92
2018-02-27T18:09:42.998Z,-8.96
2018-02-27T18:12:10.522Z,-8.91
2018-02-27T18:14:38.536Z,-9.03
2018-02-27T18:17:07.364Z,-9.03
2018-02-27T18:19:36.441Z,-9.01
2018-02-27T18:22:05.697Z,-8.97
2018-02-27T18:24:33.412Z,-8.90
2018-02-27T18:27:01.960Z,-8.94
2018-02-27T18:29:29.571Z,-8.95
2018-02-27T18:31:57.116Z,-8.99
2018-02-27T18:34:27.794Z,-9.02
2018-02-27T18:36:55.408Z,-9.09
2018-02-27T18:39:29.386Z,-9.12
2018-02-27T18:42:01.090Z,-9.07
2018-02-27T18:44:33.370Z,-9.04
2018-02-27T18:47:01.876Z,-9.05
2018-02-27T18:49:35.832Z,-9.02
2018-02-27T18:52:03.323Z,-9.04
2018-02-27T18:54:31.528Z,-9.07
2018-02-27T18:57:00.441Z,-9.10
2018-02-27T18:59:34.407Z,-9.02
2018-02-27T19:02:05.253Z,-9.10
2018-02-27T19:04:33.850Z,-9.06
2018-02-27T19:07:03.237Z,-9.10
2018-02-27T19:09:33.210Z,-9.03
2018-02-27T19:12:04.390Z,-9.12
2018-02-27T19:14:33.731Z,-9.03
2018-02-27T19:17:02.103Z,-9.12
2018-02-27T19:19:29.681Z,-9.08
2018-02-27T19:21:57.170Z,-9.09
2018-02-27T19:24:26.570Z,-9.15
2018-02-27T19:26:54.155Z,-9.18
2018-02-27T19:29:21.698Z,-9.14
2018-02-27T19:31:49.309Z,-9.14
2018-02-27T19:34:16.803Z,-9.26
2018-02-27T19:36:44.268Z,-9.29
2018-02-27T19:39:11.867Z,-9.25
2018-02-27T19:41:39.407Z,-9.28
2018-02-27T19:44:06.910Z,-9.36
2018-02-27T19:46:34.835Z,-9.36
2018-02-27T19:49:02.452Z,-9.36
2018-02-27T19:51:30.073Z,-9.33
2018-02-27T19:53:57.665Z,-9.42
2018-02-27T19:56:25.324Z,-9.44
2018-02-27T19:58:52.890Z,-9.44
2018-02-27T20:01:20.501Z,-9.41
2018-02-27T20:03:48.064Z,-9.36
2018-02-27T20:06:15.617Z,-9.40
2018-02-27T20:08:46.183Z,-9.42
2018-02-27T20:11:13.790Z,-9.30
2018-02-27T20:13:41.393Z,-9.35
2018-02-27T20:16:09.339Z,-9.35
2018-02-27T20:18:37.224Z,-9.24
2018-02-27T20:21:04.812Z,-9.32
2018-02-27T20:23:37.920Z,-9.28
2018-02-27T20:26:06.414Z,-9.29
2018-02-27T20:28:39.682Z,-9.20
2018-02-27T20:31:07.290Z,-9.26
2018-02-27T20:33:38.206Z,-9.25
2018-02-27T20:36:05.741Z,-9.24
2018-02-27T20:38:38.984Z,-9.26
2018-02-27T20:41:06.543Z,-9.26
2018-02-27T20:43:34.084Z,-9.35
2018-02-27T20:46:01.568Z,-9.35
2018-02-27T20:48:29.521Z,-9.35
2018-02-27T20:50:57.023Z,-9.35
2018-02-27T20:53:24.525Z,-9.36
2018-02-27T20:55:53.207Z,-9.38
2018-02-27T20:58:20.884Z,-9.33
2018-02-27T21:00:49.055Z,-9.32
2018-02-27T21:03:17.684Z,-9.27
2018-02-27T21:05:46.698Z,-9.31
2018-02-27T21:08:14.659Z,-9.38
2018-02-27T21:10:42.524Z,-9.41
2018-02-27T21:13:10.053Z,-9.35
2018-02-27T21:15:37.556Z,-9.46
2018-02-27T21:18:06.296Z,-9.55
2018-02-27T21:20:35.725Z,-9.60
2018-02-27T21:23:03.332Z,-9.61
2018-02-27T21:25:32.834Z,-9.59
2018-02-27T21:28:00.794Z,-9.47
2018-02-27T21:30:28.601Z,-9.55
2018-02-27T21:32:56.430Z,-9.50
2018-02-27T21:35:24.517Z,-9.46
2018-02-27T21:37:53.102Z,-9.40
2018-02-27T21:40:20.628Z,-9.38
2018-02-27T21:55:45.268Z,-9.67
2018-02-27T21:58:12.916Z,-9.69
2018-02-27T22:00:40.784Z,-9.67
2018-02-27T22:03:08.672Z,-9.67
2018-02-27T22:05:36.254Z,-9.66
2018-02-27T22:08:03.869Z,-9.59
2018-02-27T22:10:32.892Z,-9.70
2018-02-27T22:13:00.575Z,-9.70
2018-02-27T22:15:28.110Z,-9.66
2018-02-27T22:17:55.663Z,-9.62
2018-02-27T22:20:23.216Z,-9.56
2018-02-27T22:22:50.768Z,-9.64
2018-02-27T22:25:18.748Z,-9.61
2018-02-27T22:27:46.306Z,-9.61
2018-02-27T22:30:14.140Z,-9.66
2018-02-27T22:32:41.729Z,-9.54
2018-02-27T22:35:09.322Z,-9.61
2018-02-27T22:37:37.122Z,-9.65
2018-02-27T22:40:04.657Z,-9.58
2018-02-27T22:42:32.294Z,-9.57
2018-02-27T22:44:59.817Z,-9.62
2018-02-27T22:47:27.310Z,-9.73
2018-02-27T22:49:54.824Z,-9.76
2018-02-27T22:52:22.408Z,-9.81
2018-02-27T22:54:49.974Z,-9.82
2018-02-27T22:57:17.631Z,-9.82
2018-02-27T22:59:45.213Z,-9.81
2018-02-27T23:02:12.775Z,-9.80
2018-02-27T23:04:40.367Z,-9.81
2018-02-27T23:07:09.200Z,-9.77
2018-02-27T23:09:36.734Z,-9.78
2018-02-27T23:12:04.447Z,-9.82
2018-02-27T23:14:32.158Z,-9.81
2018-02-27T23:16:59.671Z,-9.84
2018-02-27T23:19:29.249Z,-9.79
2018-02-27T23:22:07.936Z,-9.75
2018-02-27T23:24:54.665Z,-9.68
2018-02-27T23:27:23.632Z,-9.70
2018-02-27T23:29:52.491Z,-9.74
2018-02-27T23:32:21.474Z,-9.79
2018-02-27T23:34:52.189Z,-9.80
2018-02-27T23:37:19.678Z,-9.94
2018-02-27T23:39:47.169Z,-9.88
2018-02-27T23:42:14.692Z,-9.87
2018-02-27T23:44:42.267Z,-9.87
2018-02-27T23:47:10.352Z,-9.77
2018-02-27T23:49:41.284Z,-9.79
2018-02-27T23:52:08.793Z,-9.77
2018-02-27T23:54:36.280Z,-9.83
2018-02-27T23:57:03.803Z,-9.89
2018-02-27T23:59:31.285Z,-9.89
